RESULTATS »

INSCRITS PRESENTATS ACABEN RETIRATS DESQUALIFICATS DIST. TRAM 1 DIST. TRAM 2 DIST. TRAM 3 TEMP. EXT TEMP. AIGUA
303 249 229 7 13 5 20 2 13 0

CLASSIFICACIÓ

MASCULÍ FEMENÍ CATEGORIES CLUBS (MASCULINA) CLUBS (FEMENINA) INDIVIDUALS GRUPS D'EDAT

LLOCDORSALNOMCLUBCAT.T.META| P.Tram 1 || P.Tram 2 |Km/hTEMPS| P.Tram 3 |PARC_1PARC_2
1 6072PATRICIA ORTEGA RUIZCLUB TRIATLO VALLIRANAABF01:07:3013200:21:394300:33:1336.1300:54:5211200:12:3800:00:0000:00:00
2 6194ELVA ROJAS LEDEZMACLUB TRIATLO SABADELLABF01:07:527300:20:1310800:35:3433.7400:55:478200:12:0500:00:0000:00:00
3 1833CLARA AULINAS PRATCLUB NATACIO OLOTCDF01:08:228700:20:3611500:36:0633.2400:56:424900:11:4000:00:0000:00:00
4 4070SUSANA CASTAN SALINASCLUB ESPORTIU PRORUNNERSV1F01:09:5915800:22:239500:34:5934.3000:57:2211100:12:3700:00:0000:00:00
5 6111IRENE SANCHEZ ALBERTDIMENSION3 CLUB TRIATLOSUB23F01:11:2010100:20:5115400:38:1331.4000:59:049400:12:1600:00:0000:00:00
6 2229MARTA MARTÍN-MORAFASTTRIATLON-C.N. MONTJUIJNF01:11:4715300:22:0713100:37:0032.4300:59:0711500:12:4000:00:0000:00:00
7 8040SANDRA ALONSO RUIZLLICENCIA DE DIAABF01:12:308500:20:3216600:39:0430.7200:59:3613100:12:5400:00:0000:00:00
8 7019LAURA BALETA FARRERASLLICENCIA DE DIAABF01:12:5614100:21:5412800:36:5232.5500:58:4617600:14:1000:00:0000:00:00
9 7022MARIA BOIX-FRIASLLICENCIA DE DIAABF01:13:2715900:22:2415700:38:3431.1101:00:589900:12:2900:00:0000:00:00
10 1419CELIA MEMBRILLERA SERRANOCLUB TRI5UABF01:13:5812800:21:3017400:39:5130.1101:01:2111000:12:3700:00:0000:00:00
11 8053LAURA LÓPEZ FERRERLLICENCIA DE DIAABF01:14:4516500:22:3316500:38:5230.8701:01:2514600:13:2000:00:0000:00:00
12 2237MARTA MIRON MARTINEZC.N. MATAROABF01:15:0517500:23:1914900:37:5731.6201:01:1617000:13:4900:00:0000:00:00
13 8041JESSICA REVERTE DE GEALLICENCIA DE DIAABF01:15:0816200:22:3117000:39:3530.3201:02:0613500:13:0200:00:0000:00:00
14 8026KARME FERNÁNDEZ ROMÁNLLICENCIA DE DIAV1F01:15:2615700:22:2217100:39:3630.3001:01:5815400:13:2800:00:0000:00:00
15 5057GABRIELLA BUCCIC.N. MATAROABF01:15:4319000:24:1115600:38:1731.3501:02:2814100:13:1500:00:0000:00:00
16 1793MONICA MONFORT ROCACLUB ATLETISME OLESAABF01:16:1717200:23:1216900:39:2930.3901:02:4116000:13:3600:00:0000:00:00
17 4098ÀNGELS PRAT MÉNDEZT3R TRIATLOSUB23F01:18:4119700:24:3517500:39:5430.0801:04:2917900:14:1200:00:0000:00:00
18 5192ANDREA MEDRANO VICENTEC. BCN TRIATHLON TOTAL3ABF01:19:3119200:24:2619400:41:2229.0101:05:4816700:13:4300:00:0000:00:00
19 8027MARTINA REBULLLLICENCIA DE DIAABF01:20:0520200:25:0718500:40:3629.5601:05:4319000:14:2200:00:0000:00:00
20 6110CLARA PESO DOMINGUEZFASTTRIATLON-C.N. MONTJUIJNF01:21:2818800:23:5520600:43:4127.4701:07:3617100:13:5200:00:0000:00:00
21 3491KATHARINE JEFFERIESC.E. KATOA BARCELONAABF01:22:3020400:25:1520200:43:0127.9001:08:1618500:14:1400:00:0000:00:00
22 5025ROCÍO TORRE RUIZFASTTRIATLON-C.N. MONTJUIV2F01:22:4921000:25:5219900:42:3428.1901:08:2619100:14:2300:00:0000:00:00
23 4016SILVIA GARCIA XIFRÉCLUB TRIATLO BLANESV1F01:23:0721500:26:1419500:42:0228.5501:08:1619900:14:5100:00:0000:00:00
24 6158PAULA BALCARCE VARGASC.N. MATAROABF01:23:2420600:25:4320000:42:4128.1101:08:2420000:15:0000:00:0000:00:00
25 4JOANA CRUZ GALLARDOCLUB ESPORTIU Z5V1F01:23:3219400:24:2820700:44:0327.2401:08:3120100:15:0100:00:0000:00:00
26 8013SONIA PRIETO SEGUROLLICENCIA DE DIAV1F01:24:4021400:26:1020500:43:1827.7101:09:2820200:15:1200:00:0000:00:00
27 8005ROSA JIMÉNEZ MOLINA LLICENCIA DE DIAV1F01:25:5320100:25:0221400:45:3726.3101:10:3920300:15:1400:00:0000:00:00
28 8029MARISOL SOLER PERRUSQUIALLICENCIA DE DIAV1F01:26:2922100:26:5720800:44:0527.2201:11:0221000:15:2700:00:0000:00:00
29 6137Mª ROSARIO CAÑETE JIMÉNEZCLUB TRIATLO CASTELLBISBAV1F01:26:4521200:26:0321100:44:5026.7701:10:5321300:15:5200:00:0000:00:00
30 8045ANNA CAZALLA BRINGUELLICENCIA DE DIAABF01:27:1320300:25:1421600:47:1125.4301:12:2519700:14:4800:00:0000:00:00
31 1538ANABEL MARTÍNEZ MARTÍNEZTRIATLO TERRASSASPORTS-CIABF01:28:0021100:25:5522000:47:5225.0701:13:4718100:14:1300:00:0000:00:00
32 8051VIVIANA IGLESIAS SAENZLLICENCIA DE DIAV2F01:28:2122300:27:5820900:44:1127.1601:12:0921500:16:1200:00:0000:00:00
33 7004CARMEN PEÑA SALCEDOLLICENCIA DE DIAABF01:30:2821800:26:4521700:47:2025.3501:14:0521700:16:2300:00:0000:00:00
34 3487MERITXELL LARRED FERRASCERDANYOLA CHABF01:31:2320700:25:4422200:49:5624.0301:15:4021100:15:4300:00:0000:00:00
35 3377VERONICA GORRIZ RODRIGUEZTRI2WINV1F01:31:3922200:27:1821900:47:4525.1301:15:0321900:16:3600:00:0000:00:00


NF 8032ELENA ELVIRALLICENCIA DE DIAABF00:00:00000:28:03000:42:5128.0001:10:54000:00:0000:00:0000:00:00
NF 6280ANNA PADRES KEITACLUB NATACIO BANYOLESCDF00:00:00000:25:58000:00:000.0000:00:00000:00:0000:00:0000:00:00
NF 3414MARTA BIEITO LOPEZC.N. TERRASSA-CICLES MOREV1F00:00:00000:27:36000:00:000.0000:00:00000:00:0000:00:0000:00:00


DQ 2057CLAUDIA PEREZ PAYC.N. SABADELLJNF00:53:34000:10:04000:33:0036.3600:43:04000:10:3000:00:0000:00:00


NP 3465MARTA MARI FERNANDEZC.E. MASQUES ST ANDREUABF
NP 3489ANDREA CARROGGIOINDEPENDENTABF
NP 8044BENITA BREITERLLICENCIA DE DIAABF
NP 1624VANESSA ARRIBAS VALENCIACLUB ESPORTIU PRORUNNERSABF
NP 4067HELENA CANOVAS MORENOCLUB ESPORTIU PRORUNNERSV1F
NP 8047SARA DE DIEGO NAVARRALLICENCIA DE DIAABF
NP 5170RACHAEL WESTCLUB NATACIO VALLDOREIXV1F
NP 8011MARIA RODRÍGUEZ LLICENCIA DE DIAV1F
NP 8017SANDRA VERALLICENCIA DE DIAV1F

FEDERACIÓ CATALANA DE TRIATLÓ
SEU CENTRAL I CORRESPONDÈNCIA: Rambla Guipúscoa 23-25 2on-D · 08018 Barcelona · Tel / Fax : 93 307 93 35
ATENCIÓ AL PÚBLIC: Passeig Joan de Borbó, 93 (Club Natació Barcelona) · 08039 Barcelona · Tel / Fax : 93 307 93 32